METAR Data

Data at: 2143 UTC 01 Dec 2021

METAR for:KBML (Berlin Muni, NH, US)
Text:KBML 012052Z AUTO 30005KT 10SM CLR 00/M09 A3001 RMK AO2 SLP177 T00001089 50012
Temperature: 0.0°C ( 32°F)
Dewpoint: -8.9°C ( 16°F) [RH = 51%]
Pressure (altimeter):30.01 inches Hg (1016.3 mb) [Sea level pressure: 1017.7 mb]
Winds:from the WNW (300 degrees) at 6 MPH (5 knots; 2.6 m/s)
Visibility:10 or more sm (16+ km)
Ceiling:at least 12,000 feet AGL
Clouds:sky clear below 12,000 feet AGL
QC Flag:automated observation with no human augmentation